Aviation Digital Data Service (ADDS)

Output produced by METARs form (0811 UTC 27 March 2015)
found at http://aviationweather.gov/adds/metars/
 
KBHB 270529Z 2706/2806 VRB03KT 6SM -RA BR OVC035 
     FM270900 35004KT 6SM -SN SCT010 OVC020 
     FM271200 35005KT P6SM SCT025 OVC040 AMD LTD TO CLD VIS AND WIND